Time;durP1;ratioP1;P1;durP2;ratioP2;P2;SDS_P1;SDS_P2;PMS_P1;PMS_P2;Temp;Humidity;BMP_temperature;BMP_pressure;BME280_temperature;BME280_humidity;BME280_pressure;Samples;Min_cycle;Max_cycle;Signal;HPM_P1;HPM_P2
2021/06/27 00:00:31;;;;;;;;;15.25;13.50;;;;;;;;4969293;28;8828;-85
2021/06/27 00:02:59;;;;;;;;;12.25;12.25;;;;;;;;4964561;28;8885;-87
2021/06/27 00:05:28;;;;;;;;;16.25;15.00;;;;;;;;4965908;28;8903;-81
2021/06/27 00:07:57;;;;;;;;;13.50;13.50;;;;;;;;4965993;28;8969;-85
2021/06/27 00:10:27;;;;;;;;;14.50;12.25;;;;;;;;4967910;28;8980;-87
2021/06/27 00:12:55;;;;;;;;;14.25;12.25;;;;;;;;4965327;28;8865;-81
2021/06/27 00:15:25;;;;;;;;;10.50;10.00;;;;;;;;4965515;28;9000;-85
2021/06/27 00:17:53;;;;;;;;;13.50;13.50;;;;;;;;4964245;28;9024;-84
2021/06/27 00:20:24;;;;;;;;;17.50;17.50;;;;;;;;4966455;28;9001;-84
2021/06/27 00:22:51;;;;;;;;;14.75;13.50;;;;;;;;4964962;28;8869;-82
2021/06/27 00:25:23;;;;;;;;;15.00;14.00;;;;;;;;4965922;28;8943;-85
2021/06/27 00:27:51;;;;;;;;;15.00;15.00;;;;;;;;4966300;28;8899;-86
2021/06/27 00:30:20;;;;;;;;;13.00;13.00;;;;;;;;4963181;28;8881;-85
2021/06/27 00:32:48;;;;;;;;;11.75;11.75;;;;;;;;4965345;28;10187;-82
2021/06/27 00:35:17;;;;;;;;;15.50;14.50;;;;;;;;4963214;28;8877;-81
2021/06/27 00:37:44;;;;;;;;;17.75;15.25;;;;;;;;4964393;28;8887;-81
2021/06/27 00:40:15;;;;;;;;;16.00;13.75;;;;;;;;4965028;28;9627;-81
2021/06/27 00:42:44;;;;;;;;;15.00;13.75;;;;;;;;4965787;28;8881;-82
2021/06/27 00:45:14;;;;;;;;;14.50;14.50;;;;;;;;4965308;28;8891;-83
2021/06/27 00:47:43;;;;;;;;;15.50;15.50;;;;;;;;4964440;28;8850;-85
2021/06/27 00:50:14;;;;;;;;;17.25;16.25;;;;;;;;4964411;28;8889;-80
2021/06/27 00:52:41;;;;;;;;;14.75;14.50;;;;;;;;4963420;28;8893;-82
2021/06/27 00:55:10;;;;;;;;;13.75;13.25;;;;;;;;4967491;28;8881;-84
2021/06/27 00:57:38;;;;;;;;;12.50;12.50;;;;;;;;4966934;28;8887;-86
2021/06/27 01:00:09;;;;;;;;;15.50;15.50;;;;;;;;4964940;28;8899;-81
2021/06/27 01:02:36;;;;;;;;;14.25;14.25;;;;;;;;4964414;28;8873;-81
2021/06/27 01:05:06;;;;;;;;;19.75;17.25;;;;;;;;4962086;28;8883;-85
2021/06/27 01:07:33;;;;;;;;;17.75;16.25;;;;;;;;4965372;28;8893;-82
2021/06/27 01:10:01;;;;;;;;;18.75;18.75;;;;;;;;4963809;28;8889;-83
2021/06/27 01:12:28;;;;;;;;;17.50;16.50;;;;;;;;4965946;28;8873;-84
2021/06/27 01:14:56;;;;;;;;;14.75;14.75;;;;;;;;4963216;28;8903;-82
2021/06/27 01:17:24;;;;;;;;;14.25;12.50;;;;;;;;4964147;28;8881;-82
2021/06/27 01:19:51;;;;;;;;;18.75;18.75;;;;;;;;4965155;28;8861;-83
2021/06/27 01:22:20;;;;;;;;;21.75;17.50;;;;;;;;4964174;28;8870;-84
2021/06/27 01:24:47;;;;;;;;;20.25;16.50;;;;;;;;4964912;28;8876;-84
2021/06/27 01:27:15;;;;;;;;;16.25;16.25;;;;;;;;4961451;28;8886;-83
2021/06/27 01:29:42;;;;;;;;;13.00;13.00;;;;;;;;4966619;28;8885;-81
2021/06/27 01:32:11;;;;;;;;;14.00;14.00;;;;;;;;4964601;28;8984;-80
2021/06/27 01:34:39;;;;;;;;;15.25;15.25;;;;;;;;4963525;28;9019;-80
2021/06/27 01:37:06;;;;;;;;;17.75;17.75;;;;;;;;4961080;28;8890;-80
2021/06/27 01:39:36;;;;;;;;;17.50;17.50;;;;;;;;4962822;28;8917;-79
2021/06/27 01:42:03;;;;;;;;;19.50;16.75;;;;;;;;4966027;28;8896;-81
2021/06/27 01:44:32;;;;;;;;;20.00;18.50;;;;;;;;4962884;28;8877;-81
2021/06/27 01:47:00;;;;;;;;;15.00;15.00;;;;;;;;4965210;28;8873;-84
2021/06/27 01:49:27;;;;;;;;;20.50;17.75;;;;;;;;4966128;28;8869;-80
2021/06/27 01:51:55;;;;;;;;;20.75;20.25;;;;;;;;4967183;28;9647;-79
2021/06/27 01:54:23;;;;;;;;;14.50;14.50;;;;;;;;4963626;28;8865;-81
2021/06/27 01:56:51;;;;;;;;;17.25;17.25;;;;;;;;4966878;28;8891;-85
2021/06/27 01:59:19;;;;;;;;;18.75;17.50;;;;;;;;4966187;28;8869;-80
2021/06/27 02:01:46;;;;;;;;;15.00;15.00;;;;;;;;4966820;28;8925;-84
2021/06/27 02:04:14;;;;;;;;;15.50;15.00;;;;;;;;4964033;28;8990;-85
2021/06/27 02:06:43;;;;;;;;;22.75;19.00;;;;;;;;4964101;28;8889;-88
2021/06/27 02:09:12;;;;;;;;;18.25;18.00;;;;;;;;4964431;28;8900;-81
2021/06/27 02:11:41;;;;;;;;;18.25;18.00;;;;;;;;4963846;28;8983;-81
2021/06/27 02:14:10;;;;;;;;;17.75;17.75;;;;;;;;4963167;28;8984;-86
2021/06/27 02:16:38;;;;;;;;;19.00;17.75;;;;;;;;4964209;28;8966;-85
2021/06/27 02:19:06;;;;;;;;;19.25;18.75;;;;;;;;4962935;28;9008;-86
2021/06/27 02:21:36;;;;;;;;;16.25;15.25;;;;;;;;4964768;28;8911;-89
2021/06/27 02:24:03;;;;;;;;;20.00;18.50;;;;;;;;4964631;28;8872;-84
2021/06/27 02:26:31;;;;;;;;;19.00;18.50;;;;;;;;4964805;28;8913;-88
2021/06/27 02:28:59;;;;;;;;;21.75;20.50;;;;;;;;4963948;28;8873;-87
2021/06/27 02:31:30;;;;;;;;;23.75;22.50;;;;;;;;4964393;28;8815;-90
2021/06/27 02:33:58;;;;;;;;;25.25;23.50;;;;;;;;4964844;28;8873;-90
2021/06/27 02:36:25;;;;;;;;;19.50;18.25;;;;;;;;4963673;28;8899;-86
2021/06/27 02:38:53;;;;;;;;;21.00;21.00;;;;;;;;4964415;28;8901;-91
2021/06/27 02:41:21;;;;;;;;;23.75;22.50;;;;;;;;4963669;28;8903;-90
2021/06/27 02:43:48;;;;;;;;;21.75;20.50;;;;;;;;4964138;28;8873;-91
2021/06/27 02:46:15;;;;;;;;;25.25;21.50;;;;;;;;4966561;28;8907;-91
2021/06/27 02:48:44;;;;;;;;;24.50;24.50;;;;;;;;4969953;28;8877;-90
2021/06/27 02:51:12;;;;;;;;;22.00;22.00;;;;;;;;4968738;28;8862;-90
2021/06/27 02:53:39;;;;;;;;;25.75;23.50;;;;;;;;4967890;28;8897;-89
2021/06/27 02:56:10;;;;;;;;;24.25;22.75;;;;;;;;4968510;28;8894;-89
2021/06/27 02:58:39;;;;;;;;;23.25;22.75;;;;;;;;4968148;28;9665;-90
2021/06/27 03:01:07;;;;;;;;;25.00;23.00;;;;;;;;4971235;28;8841;-90
2021/06/27 03:03:35;;;;;;;;;23.25;22.75;;;;;;;;4969640;28;8978;-91
2021/06/27 03:06:04;;;;;;;;;22.25;20.75;;;;;;;;4966852;28;8917;-90
2021/06/27 03:08:31;;;;;;;;;23.50;23.50;;;;;;;;4967207;28;8881;-91
2021/06/27 03:10:59;;;;;;;;;28.00;24.50;;;;;;;;4966963;28;8931;-89
2021/06/27 03:13:26;;;;;;;;;22.25;20.25;;;;;;;;4970610;28;8894;-90
2021/06/27 03:15:54;;;;;;;;;21.00;21.00;;;;;;;;4968587;28;8999;-88
2021/06/27 03:18:22;;;;;;;;;22.75;21.25;;;;;;;;4969310;28;8907;-90
2021/06/27 03:20:49;;;;;;;;;22.25;22.25;;;;;;;;4968372;28;8853;-87
2021/06/27 03:23:18;;;;;;;;;24.25;22.75;;;;;;;;4966666;28;8889;-90
2021/06/27 03:25:45;;;;;;;;;22.25;20.75;;;;;;;;4967068;28;8857;-89
2021/06/27 03:28:13;;;;;;;;;25.25;24.00;;;;;;;;4966185;28;9795;-89
2021/06/27 03:30:40;;;;;;;;;25.00;22.25;;;;;;;;4968648;28;9000;-89
2021/06/27 03:33:08;;;;;;;;;24.25;24.25;;;;;;;;4969065;28;8881;-86
2021/06/27 03:35:36;;;;;;;;;26.25;26.25;;;;;;;;4966936;28;8909;-89
2021/06/27 03:38:08;;;;;;;;;26.75;23.50;;;;;;;;4966886;28;8920;-85
2021/06/27 03:40:39;;;;;;;;;28.75;27.75;;;;;;;;4965112;28;8883;-86
2021/06/27 03:43:06;;;;;;;;;24.00;23.00;;;;;;;;4967241;28;8951;-85
2021/06/27 03:45:33;;;;;;;;;27.50;25.50;;;;;;;;4966706;28;8899;-86
2021/06/27 03:48:00;;;;;;;;;21.50;19.75;;;;;;;;4966384;28;8861;-88
2021/06/27 03:50:28;;;;;;;;;28.50;26.00;;;;;;;;4966358;28;8931;-87
2021/06/27 03:52:55;;;;;;;;;27.50;27.25;;;;;;;;4968113;28;8987;-88
2021/06/27 03:55:22;;;;;;;;;20.75;19.50;;;;;;;;4968380;28;8920;-86
2021/06/27 03:57:51;;;;;;;;;18.25;18.25;;;;;;;;4966342;28;8862;-88
2021/06/27 04:00:20;;;;;;;;;19.75;19.75;;;;;;;;4966575;28;8853;-85
2021/06/27 04:02:48;;;;;;;;;20.25;20.25;;;;;;;;4973050;28;9691;-88
2021/06/27 04:05:16;;;;;;;;;23.50;23.00;;;;;;;;4965757;28;8877;-86
2021/06/27 04:07:43;;;;;;;;;22.50;22.50;;;;;;;;4966278;28;8996;-87
2021/06/27 04:10:11;;;;;;;;;28.50;25.25;;;;;;;;4967515;28;9019;-86
2021/06/27 04:12:38;;;;;;;;;23.25;21.50;;;;;;;;4964641;28;8877;-85
2021/06/27 04:15:09;;;;;;;;;23.67;21.67;;;;;;;;4966599;28;8895;-85
2021/06/27 04:17:37;;;;;;;;;25.75;25.50;;;;;;;;4965165;28;8861;-85
2021/06/27 04:20:05;;;;;;;;;21.50;18.75;;;;;;;;4966109;28;8877;-83
2021/06/27 04:22:33;;;;;;;;;26.75;23.00;;;;;;;;4967746;28;8877;-84
2021/06/27 04:25:02;;;;;;;;;22.50;22.00;;;;;;;;4965431;28;8911;-84
2021/06/27 04:27:30;;;;;;;;;24.50;24.50;;;;;;;;4965702;28;8909;-87
2021/06/27 04:29:57;;;;;;;;;23.50;21.75;;;;;;;;4963263;28;8892;-88
2021/06/27 04:32:26;;;;;;;;;23.50;23.25;;;;;;;;4967946;28;8874;-88
2021/06/27 04:34:53;;;;;;;;;23.50;23.25;;;;;;;;4965983;28;8907;-86
2021/06/27 04:37:21;;;;;;;;;25.50;24.25;;;;;;;;4964238;28;8873;-86
2021/06/27 04:39:48;;;;;;;;;22.75;22.75;;;;;;;;4965561;28;8885;-87
2021/06/27 04:42:16;;;;;;;;;20.75;20.00;;;;;;;;4964964;28;8873;-86
2021/06/27 04:44:43;;;;;;;;;22.00;21.25;;;;;;;;4965241;28;9705;-87
2021/06/27 04:47:11;;;;;;;;;25.50;25.00;;;;;;;;4965322;28;8932;-87
2021/06/27 04:49:42;;;;;;;;;27.50;23.50;;;;;;;;4966273;28;8877;-89
2021/06/27 04:52:10;;;;;;;;;22.00;22.00;;;;;;;;4967928;28;8943;-83
2021/06/27 04:54:37;;;;;;;;;23.50;22.75;;;;;;;;4966925;28;8885;-86
2021/06/27 04:57:05;;;;;;;;;21.00;21.00;;;;;;;;4966034;28;8895;-87
2021/06/27 04:59:33;;;;;;;;;25.75;23.00;;;;;;;;4968422;28;8877;-88
2021/06/27 05:02:00;;;;;;;;;21.75;18.25;;;;;;;;4967585;28;8983;-87
2021/06/27 05:04:28;;;;;;;;;21.00;21.00;;;;;;;;4973349;28;8877;-83
2021/06/27 05:06:57;;;;;;;;;22.75;20.50;;;;;;;;4969794;28;8874;-88
2021/06/27 05:09:24;;;;;;;;;27.00;23.75;;;;;;;;4971392;28;9639;-85
2021/06/27 05:11:51;;;;;;;;;18.75;16.75;;;;;;;;4966790;28;8893;-87
2021/06/27 05:14:19;;;;;;;;;19.00;18.50;;;;;;;;4970408;28;8960;-86
2021/06/27 05:16:47;;;;;;;;;22.50;20.00;;;;;;;;4969973;28;8886;-82
2021/06/27 05:19:14;;;;;;;;;23.00;23.00;;;;;;;;4966541;28;8920;-85
2021/06/27 05:21:42;;;;;;;;;22.25;22.25;;;;;;;;4965426;28;8903;-87
2021/06/27 05:24:10;;;;;;;;;17.50;15.75;;;;;;;;4966572;28;8893;-88
2021/06/27 05:26:38;;;;;;;;;20.75;20.75;;;;;;;;4967053;28;8881;-87
2021/06/27 05:29:05;;;;;;;;;19.25;19.25;;;;;;;;4967878;28;8865;-88
2021/06/27 05:31:36;;;;;;;;;20.00;18.25;;;;;;;;4971421;28;8958;-90
2021/06/27 05:34:03;;;;;;;;;20.25;20.25;;;;;;;;4970677;28;8857;-92
2021/06/27 05:36:36;;;;;;;;;19.25;17.50;;;;;;;;4966704;28;9673;-87
2021/06/27 05:39:05;;;;;;;;;19.25;19.25;;;;;;;;4963578;28;8876;-86
2021/06/27 05:42:17;;;;;;;;;21.00;21.00;;;;;;;;4964206;28;8874;-85
2021/06/27 05:44:45;;;;;;;;;25.00;19.25;;;;;;;;4965098;28;8870;-93
2021/06/27 05:47:12;;;;;;;;;22.50;21.50;;;;;;;;4960349;28;8888;-83
2021/06/27 05:49:39;;;;;;;;;17.00;17.00;;;;;;;;4965291;28;8907;-91
2021/06/27 05:52:07;;;;;;;;;23.00;22.00;;;;;;;;4968146;28;8924;-82
2021/06/27 05:54:34;;;;;;;;;20.00;20.00;;;;;;;;4964080;28;10227;-91
2021/06/27 05:57:02;;;;;;;;;22.75;21.25;;;;;;;;4963663;28;8850;-89
2021/06/27 05:59:30;;;;;;;;;28.25;24.50;;;;;;;;4963141;28;8897;-91
2021/06/27 06:01:58;;;;;;;;;26.00;24.00;;;;;;;;4963616;28;8941;-81
2021/06/27 06:04:25;;;;;;;;;28.25;28.25;;;;;;;;4962476;28;8897;-80
2021/06/27 06:06:52;;;;;;;;;24.75;24.25;;;;;;;;4961339;28;8880;-86
2021/06/27 06:09:19;;;;;;;;;25.50;23.25;;;;;;;;4961946;28;8884;-81
2021/06/27 06:11:47;;;;;;;;;21.00;19.00;;;;;;;;4960775;28;8886;-80
2021/06/27 06:14:14;;;;;;;;;24.25;21.25;;;;;;;;4965973;28;9623;-82
2021/06/27 06:16:45;;;;;;;;;21.25;15.75;;;;;;;;4963255;28;8897;-79
2021/06/27 06:19:13;;;;;;;;;17.25;17.00;;;;;;;;4964555;28;8857;-77
2021/06/27 06:21:40;;;;;;;;;24.25;23.00;;;;;;;;4964077;28;9069;-84
2021/06/27 06:24:09;;;;;;;;;23.75;23.75;;;;;;;;4966063;28;8876;-84
2021/06/27 06:26:37;;;;;;;;;25.75;23.50;;;;;;;;4965206;28;8887;-81
2021/06/27 06:29:04;;;;;;;;;21.75;20.50;;;;;;;;4966757;28;8865;-81
2021/06/27 06:31:32;;;;;;;;;14.75;13.00;;;;;;;;4963587;28;8857;-82
2021/06/27 06:34:01;;;;;;;;;18.75;18.75;;;;;;;;4967269;28;8877;-88
2021/06/27 06:36:28;;;;;;;;;20.75;20.50;;;;;;;;4964818;28;9746;-84
2021/06/27 06:38:55;;;;;;;;;14.25;12.75;;;;;;;;4964768;28;8862;-79
2021/06/27 06:41:23;;;;;;;;;22.50;22.50;;;;;;;;4964428;28;8893;-85
2021/06/27 06:43:50;;;;;;;;;22.25;21.25;;;;;;;;4964266;28;8866;-83
2021/06/27 06:46:17;;;;;;;;;19.25;19.25;;;;;;;;4964744;28;8999;-86
2021/06/27 06:48:45;;;;;;;;;17.50;17.25;;;;;;;;4963805;28;9032;-76
2021/06/27 06:51:14;;;;;;;;;19.75;19.75;;;;;;;;4967416;28;8893;-83
2021/06/27 06:53:41;;;;;;;;;20.00;20.00;;;;;;;;4968741;28;8899;-85
2021/06/27 06:56:09;;;;;;;;;22.50;21.50;;;;;;;;4965153;28;8920;-80
2021/06/27 06:58:36;;;;;;;;;15.00;15.00;;;;;;;;4968262;28;8873;-81
2021/06/27 07:01:04;;;;;;;;;22.75;20.50;;;;;;;;4962205;28;8917;-81
2021/06/27 07:03:34;;;;;;;;;18.50;18.25;;;;;;;;4981500;28;8867;-80
2021/06/27 07:06:01;;;;;;;;;20.50;20.50;;;;;;;;4982056;28;8976;-95
2021/06/27 07:08:31;;;;;;;;;23.25;22.00;;;;;;;;4971160;28;9000;-78
2021/06/27 07:10:59;;;;;;;;;18.00;18.00;;;;;;;;4963286;28;8861;-81
2021/06/27 07:13:28;;;;;;;;;23.25;22.50;;;;;;;;4958290;28;8939;-80
2021/06/27 07:15:55;;;;;;;;;19.75;19.25;;;;;;;;4962618;28;8885;-80
2021/06/27 07:18:23;;;;;;;;;21.25;19.25;;;;;;;;4964913;28;8918;-79
2021/06/27 07:20:51;;;;;;;;;18.75;18.00;;;;;;;;4961485;28;8888;-79
2021/06/27 07:23:18;;;;;;;;;21.00;21.00;;;;;;;;4973029;28;8901;-78
2021/06/27 07:25:47;;;;;;;;;20.25;18.25;;;;;;;;4964443;28;8857;-77
2021/06/27 07:28:14;;;;;;;;;20.00;18.50;;;;;;;;4970657;28;8862;-77
2021/06/27 07:30:42;;;;;;;;;21.50;19.75;;;;;;;;4964348;28;8802;-80
2021/06/27 07:33:11;;;;;;;;;23.25;20.50;;;;;;;;4970177;28;8869;-77
2021/06/27 07:35:38;;;;;;;;;22.00;20.25;;;;;;;;4977201;28;8909;-81
2021/06/27 07:38:06;;;;;;;;;19.00;19.00;;;;;;;;4968481;28;8865;-86
2021/06/27 07:40:33;;;;;;;;;18.75;18.75;;;;;;;;4967348;28;8897;-85
2021/06/27 07:43:02;;;;;;;;;17.50;16.00;;;;;;;;4970386;28;8857;-83
2021/06/27 07:45:29;;;;;;;;;19.25;17.50;;;;;;;;4966354;28;8869;-84
2021/06/27 07:47:57;;;;;;;;;19.50;17.75;;;;;;;;4967152;28;8992;-85
2021/06/27 07:50:24;;;;;;;;;17.75;17.75;;;;;;;;4967122;28;8885;-85
2021/06/27 07:52:52;;;;;;;;;19.50;18.75;;;;;;;;4968981;28;8905;-83
2021/06/27 07:55:19;;;;;;;;;18.75;18.75;;;;;;;;4961547;28;9608;-80
2021/06/27 07:57:46;;;;;;;;;16.25;16.25;;;;;;;;4970165;28;8877;-82
2021/06/27 08:00:17;;;;;;;;;19.50;19.50;;;;;;;;4971165;28;8864;-84
2021/06/27 08:02:45;;;;;;;;;20.50;20.50;;;;;;;;4967157;28;8938;-83
2021/06/27 08:05:12;;;;;;;;;17.40;17.40;;;;;;;;4968508;28;8882;-83
2021/06/27 08:07:40;;;;;;;;;16.25;16.25;;;;;;;;4966912;28;8927;-84
2021/06/27 08:10:09;;;;;;;;;19.40;16.40;;;;;;;;4967565;28;8916;-84
2021/06/27 08:12:37;;;;;;;;;18.20;18.20;;;;;;;;4966324;28;8850;-84
2021/06/27 08:15:06;;;;;;;;;17.25;17.25;;;;;;;;4967054;28;8912;-83
2021/06/27 08:17:35;;;;;;;;;19.00;17.75;;;;;;;;4966516;28;8857;-84
2021/06/27 08:20:02;;;;;;;;;18.80;17.40;;;;;;;;4966786;28;8861;-81
2021/06/27 08:22:30;;;;;;;;;17.80;16.20;;;;;;;;4967428;28;8873;-84
2021/06/27 08:24:57;;;;;;;;;18.60;18.00;;;;;;;;4966866;28;8893;-84
2021/06/27 08:27:24;;;;;;;;;17.00;16.80;;;;;;;;4967067;28;9632;-76
2021/06/27 08:29:51;;;;;;;;;17.25;17.25;;;;;;;;4967850;28;8849;-80
2021/06/27 08:32:19;;;;;;;;;21.25;20.00;;;;;;;;4973516;28;8819;-82
2021/06/27 08:34:47;;;;;;;;;20.60;18.60;;;;;;;;4972228;28;8861;-79
2021/06/27 08:37:14;;;;;;;;;16.80;16.80;;;;;;;;4962481;28;9697;-79
2021/06/27 08:39:42;;;;;;;;;11.80;11.80;;;;;;;;4966670;28;8960;-81
2021/06/27 08:42:09;;;;;;;;;20.00;17.60;;;;;;;;4962823;28;8990;-83
2021/06/27 08:44:36;;;;;;;;;20.00;16.40;;;;;;;;4964449;28;8857;-78
2021/06/27 08:47:05;;;;;;;;;21.60;19.40;;;;;;;;4965122;28;8881;-87
2021/06/27 08:49:33;;;;;;;;;22.40;21.00;;;;;;;;4967631;28;8899;-84
2021/06/27 08:52:02;;;;;;;;;20.40;17.80;;;;;;;;4969627;28;8893;-79
2021/06/27 08:54:29;;;;;;;;;17.60;17.60;;;;;;;;4968519;28;9636;-89
2021/06/27 08:56:57;;;;;;;;;15.00;13.60;;;;;;;;4967466;28;8917;-82
2021/06/27 08:59:25;;;;;;;;;17.00;16.60;;;;;;;;4966377;28;8876;-88
2021/06/27 09:02:00;;;;;;;;;15.20;15.20;;;;;;;;4965400;28;8860;-85
2021/06/27 09:04:28;;;;;;;;;16.20;15.60;;;;;;;;4965847;28;8912;-83
2021/06/27 09:06:55;;;;;;;;;19.20;17.60;;;;;;;;4961416;28;8885;-87
2021/06/27 09:09:24;;;;;;;;;17.00;16.00;;;;;;;;4972301;28;8870;-79
2021/06/27 09:12:00;;;;;;;;;15.60;15.60;;;;;;;;4965164;28;9008;-85
2021/06/27 09:14:34;;;;;;;;;16.20;16.20;;;;;;;;4971339;28;8872;-85
2021/06/27 09:17:13;;;;;;;;;20.20;18.80;;;;;;;;4962036;28;8920;-88
2021/06/27 09:20:02;;;;;;;;;15.60;15.60;;;;;;;;4965909;28;8903;-85
2021/06/27 09:22:31;;;;;;;;;18.40;18.40;;;;;;;;4965311;28;9024;-83
2021/06/27 09:25:15;;;;;;;;;19.20;19.20;;;;;;;;4958261;28;8887;-81
2021/06/27 09:27:42;;;;;;;;;17.80;16.60;;;;;;;;4966908;28;8881;-85
2021/06/27 09:30:19;;;;;;;;;18.60;17.80;;;;;;;;4964940;28;8893;-81
2021/06/27 09:32:55;;;;;;;;;17.20;16.00;;;;;;;;4970366;28;8877;-81
2021/06/27 09:35:55;;;;;;;;;19.80;19.00;;;;;;;;4958242;28;8873;-84
2021/06/27 09:38:24;;;;;;;;;15.60;14.80;;;;;;;;4903818;29;8865;-80
2021/06/27 09:40:57;;;;;;;;;16.60;16.40;;;;;;;;4952711;28;9619;-78
2021/06/27 09:43:25;;;;;;;;;18.40;18.40;;;;;;;;4963407;28;8885;-85
2021/06/27 09:45:56;;;;;;;;;18.40;18.40;;;;;;;;4964894;28;8857;-92
2021/06/27 09:48:23;;;;;;;;;16.60;16.60;;;;;;;;4964759;28;8891;-76
2021/06/27 09:50:51;;;;;;;;;19.20;19.20;;;;;;;;4965382;28;8885;-90
2021/06/27 09:53:32;;;;;;;;;18.80;17.40;;;;;;;;4982660;28;8869;-90
2021/06/27 09:56:02;;;;;;;;;20.20;18.00;;;;;;;;4968591;28;8975;-96
2021/06/27 09:58:30;;;;;;;;;19.00;19.00;;;;;;;;4964182;28;8899;-87
2021/06/27 10:00:57;;;;;;;;;18.60;17.80;;;;;;;;4964076;28;8889;-83
2021/06/27 10:03:26;;;;;;;;;17.00;13.80;;;;;;;;4969178;28;8896;-89
2021/06/27 10:06:01;;;;;;;;;16.80;16.80;;;;;;;;4966113;28;8876;-89
2021/06/27 10:08:29;;;;;;;;;15.60;15.60;;;;;;;;4967149;28;8995;-86
2021/06/27 10:11:25;;;;;;;;;15.40;14.40;;;;;;;;4966247;28;9004;-87
2021/06/27 10:13:54;;;;;;;;;18.40;15.20;;;;;;;;4965440;28;8877;-88
2021/06/27 10:16:27;;;;;;;;;15.80;15.20;;;;;;;;4966900;28;8889;-88
2021/06/27 10:18:55;;;;;;;;;19.60;18.80;;;;;;;;4963639;28;8996;-87
2021/06/27 10:21:22;;;;;;;;;13.20;13.20;;;;;;;;4957276;28;8862;-87
2021/06/27 10:23:51;;;;;;;;;13.40;13.40;;;;;;;;4965306;28;8869;-88
2021/06/27 10:26:22;;;;;;;;;16.60;16.00;;;;;;;;4965084;28;8911;-88
2021/06/27 10:28:49;;;;;;;;;11.60;10.40;;;;;;;;4964804;28;8918;-88
2021/06/27 10:31:19;;;;;;;;;13.40;11.60;;;;;;;;4963329;28;8864;-89
2021/06/27 10:33:46;;;;;;;;;11.60;11.40;;;;;;;;4966935;28;8951;-87
2021/06/27 10:36:16;;;;;;;;;15.40;13.80;;;;;;;;4965813;28;8915;-88
2021/06/27 10:38:48;;;;;;;;;15.60;14.00;;;;;;;;4966049;28;8885;-86
2021/06/27 10:41:16;;;;;;;;;14.60;14.60;;;;;;;;4965813;28;8935;-88
2021/06/27 10:44:05;;;;;;;;;14.40;12.60;;;;;;;;4966126;28;8899;-87
2021/06/27 10:46:44;;;;;;;;;15.20;15.20;;;;;;;;4966588;28;8865;-87
2021/06/27 10:49:58;;;;;;;;;14.40;13.60;;;;;;;;4964682;28;8869;-87
2021/06/27 10:52:26;;;;;;;;;16.60;16.60;;;;;;;;4964931;28;8873;-87
2021/06/27 10:55:19;;;;;;;;;14.60;14.60;;;;;;;;4965046;28;8881;-87
2021/06/27 10:58:01;;;;;;;;;15.20;15.20;;;;;;;;4965400;28;8904;-88
2021/06/27 11:01:02;;;;;;;;;15.80;15.80;;;;;;;;4965981;28;8864;-88
2021/06/27 11:03:31;;;;;;;;;14.80;14.80;;;;;;;;4966851;28;8896;-86
2021/06/27 11:06:00;;;;;;;;;16.40;15.00;;;;;;;;4965653;28;8861;-88
2021/06/27 11:08:41;;;;;;;;;18.40;16.20;;;;;;;;4969444;28;8920;-87
2021/06/27 11:11:11;;;;;;;;;13.20;13.20;;;;;;;;4968064;28;8883;-83
2021/06/27 11:13:39;;;;;;;;;15.80;14.00;;;;;;;;4970094;28;9026;-85
2021/06/27 11:16:20;;;;;;;;;13.40;13.20;;;;;;;;4964883;28;8893;-86
2021/06/27 11:18:50;;;;;;;;;13.40;13.40;;;;;;;;4968439;28;8915;-86
2021/06/27 11:21:20;;;;;;;;;15.40;15.40;;;;;;;;4970376;28;9027;-84
2021/06/27 11:23:59;;;;;;;;;16.40;15.60;;;;;;;;4966049;28;8972;-85
2021/06/27 11:26:54;;;;;;;;;13.60;13.60;;;;;;;;4967830;28;8869;-82
2021/06/27 11:29:43;;;;;;;;;11.40;11.40;;;;;;;;4966758;28;8945;-86
2021/06/27 11:32:47;;;;;;;;;13.80;13.80;;;;;;;;4968568;28;8809;-85
2021/06/27 11:35:43;;;;;;;;;12.00;12.00;;;;;;;;4893493;29;8888;-86
2021/06/27 11:38:29;;;;;;;;;13.60;13.40;;;;;;;;4886749;29;9734;-86
2021/06/27 11:40:56;;;;;;;;;11.00;11.00;;;;;;;;4949604;28;8854;-87
2021/06/27 11:43:53;;;;;;;;;15.80;12.40;;;;;;;;4965184;28;8979;-83
2021/06/27 11:46:34;;;;;;;;;13.80;12.80;;;;;;;;4962741;28;9023;-86
2021/06/27 11:49:06;;;;;;;;;15.40;15.40;;;;;;;;4967830;28;8893;-85
2021/06/27 11:51:42;;;;;;;;;16.40;14.80;;;;;;;;4969076;28;8988;-86
2021/06/27 11:54:11;;;;;;;;;13.40;12.40;;;;;;;;4967468;28;8887;-87
2021/06/27 11:57:04;;;;;;;;;12.60;12.60;;;;;;;;4969425;28;9004;-88
2021/06/27 11:59:33;;;;;;;;;15.20;14.00;;;;;;;;4954698;28;8993;-88
2021/06/27 12:02:11;;;;;;;;;13.80;13.80;;;;;;;;4964687;28;8822;-88
2021/06/27 12:04:43;;;;;;;;;15.00;13.20;;;;;;;;4968266;28;8891;-87
2021/06/27 12:07:27;;;;;;;;;13.40;12.20;;;;;;;;4964805;28;8884;-87
2021/06/27 12:09:54;;;;;;;;;15.60;11.80;;;;;;;;4967858;28;8901;-87
2021/06/27 12:12:42;;;;;;;;;16.80;15.20;;;;;;;;4968506;28;8849;-85
2021/06/27 12:15:25;;;;;;;;;15.80;15.80;;;;;;;;4963639;28;8893;-86
2021/06/27 12:17:57;;;;;;;;;12.20;12.20;;;;;;;;4967309;28;8865;-86
2021/06/27 12:20:26;;;;;;;;;15.80;14.00;;;;;;;;4964060;28;8907;-87
2021/06/27 12:22:56;;;;;;;;;12.60;12.60;;;;;;;;4968519;28;9007;-82
2021/06/27 12:25:27;;;;;;;;;14.20;14.20;;;;;;;;4965452;28;9009;-86
2021/06/27 12:27:56;;;;;;;;;16.40;16.40;;;;;;;;4964446;28;8878;-86
2021/06/27 12:30:45;;;;;;;;;14.00;14.00;;;;;;;;4967011;28;8773;-86
2021/06/27 12:33:14;;;;;;;;;11.60;10.20;;;;;;;;4962770;28;9695;-86
2021/06/27 12:35:45;;;;;;;;;16.80;15.00;;;;;;;;4967758;28;8883;-87
2021/06/27 12:38:14;;;;;;;;;13.40;13.40;;;;;;;;4968335;28;9559;-87
2021/06/27 12:40:44;;;;;;;;;15.40;14.80;;;;;;;;4968111;28;8861;-88
2021/06/27 12:43:40;;;;;;;;;15.20;14.80;;;;;;;;4968695;28;8869;-88
2021/06/27 12:46:18;;;;;;;;;13.40;13.40;;;;;;;;4949639;28;8885;-88
2021/06/27 12:48:50;;;;;;;;;15.80;15.80;;;;;;;;4968210;28;9005;-87
2021/06/27 12:51:26;;;;;;;;;17.00;17.00;;;;;;;;4967995;28;8877;-89
2021/06/27 12:54:06;;;;;;;;;12.00;12.00;;;;;;;;4968050;28;9640;-94
2021/06/27 12:56:59;;;;;;;;;18.00;17.80;;;;;;;;4967288;28;8999;-91
2021/06/27 12:59:43;;;;;;;;;14.80;12.40;;;;;;;;4945505;28;8889;-88
2021/06/27 13:02:12;;;;;;;;;13.00;13.00;;;;;;;;4967757;28;8822;-90
2021/06/27 13:04:40;;;;;;;;;8.80;8.80;;;;;;;;4967804;28;8877;-84
2021/06/27 13:07:11;;;;;;;;;5.60;5.60;;;;;;;;4967395;28;8927;-88
2021/06/27 13:09:40;;;;;;;;;5.00;5.00;;;;;;;;4967481;28;8857;-89
2021/06/27 13:12:17;;;;;;;;;7.00;7.00;;;;;;;;4953576;28;8881;-93
2021/06/27 13:14:46;;;;;;;;;7.40;7.40;;;;;;;;4967805;28;8885;-91
2021/06/27 13:17:15;;;;;;;;;8.00;8.00;;;;;;;;4966836;28;8872;-93
2021/06/27 13:20:11;;;;;;;;;9.00;9.00;;;;;;;;4972334;28;8873;-93
2021/06/27 13:22:57;;;;;;;;;8.40;7.60;;;;;;;;4968703;28;8878;-92
2021/06/27 13:25:46;;;;;;;;;9.80;8.20;;;;;;;;4962815;28;8897;-91
2021/06/27 13:28:18;;;;;;;;;7.20;7.20;;;;;;;;4967305;28;8877;-91
2021/06/27 13:30:51;;;;;;;;;7.20;7.20;;;;;;;;4964929;28;9723;-90
2021/06/27 13:33:20;;;;;;;;;8.40;8.40;;;;;;;;4967229;28;9559;-87
2021/06/27 13:35:48;;;;;;;;;8.40;8.40;;;;;;;;4966790;28;8889;-90
2021/06/27 13:38:18;;;;;;;;;8.00;8.00;;;;;;;;4964822;28;8857;-89
2021/06/27 13:40:49;;;;;;;;;9.00;9.00;;;;;;;;4966796;28;8971;-87
2021/06/27 13:43:17;;;;;;;;;8.00;8.00;;;;;;;;4964814;28;8885;-79
2021/06/27 13:45:44;;;;;;;;;9.00;8.60;;;;;;;;4967894;28;8909;-81
2021/06/27 13:48:12;;;;;;;;;11.60;10.40;;;;;;;;4960705;28;8877;-85
2021/06/27 13:50:39;;;;;;;;;11.00;11.00;;;;;;;;4965155;28;8895;-85
2021/06/27 13:53:07;;;;;;;;;6.20;6.20;;;;;;;;4964355;28;8881;-79
2021/06/27 13:55:35;;;;;;;;;16.00;14.20;;;;;;;;4965384;28;9019;-85
2021/06/27 13:58:05;;;;;;;;;12.60;11.40;;;;;;;;4966627;28;8971;-79
2021/06/27 14:00:33;;;;;;;;;11.80;11.80;;;;;;;;4964969;28;8789;-85
2021/06/27 14:03:00;;;;;;;;;11.40;11.40;;;;;;;;4963446;28;8902;-83
2021/06/27 14:05:27;;;;;;;;;10.00;10.00;;;;;;;;4965396;28;8971;-85
2021/06/27 14:07:56;;;;;;;;;13.20;12.00;;;;;;;;4963153;28;8985;-85
2021/06/27 14:10:25;;;;;;;;;9.00;9.00;;;;;;;;4964275;28;8891;-82
2021/06/27 14:12:54;;;;;;;;;9.60;9.60;;;;;;;;4963958;28;8865;-86
2021/06/27 14:15:22;;;;;;;;;9.80;8.80;;;;;;;;4961095;28;8930;-85
2021/06/27 14:17:53;;;;;;;;;8.00;8.00;;;;;;;;4960393;28;8869;-86
2021/06/27 14:20:21;;;;;;;;;11.00;11.00;;;;;;;;4964145;28;8995;-87
2021/06/27 14:22:49;;;;;;;;;9.40;9.40;;;;;;;;4961571;28;8887;-85
2021/06/27 14:25:17;;;;;;;;;9.60;9.60;;;;;;;;4965439;28;8893;-84
2021/06/27 14:27:44;;;;;;;;;11.00;11.00;;;;;;;;4966160;28;8861;-86
2021/06/27 14:30:14;;;;;;;;;10.20;9.40;;;;;;;;4963720;28;8877;-85
2021/06/27 14:32:41;;;;;;;;;7.20;7.20;;;;;;;;4964860;28;8896;-75
2021/06/27 14:35:11;;;;;;;;;8.00;6.60;;;;;;;;4963425;28;8880;-86
2021/06/27 14:37:42;;;;;;;;;11.00;11.00;;;;;;;;4965182;28;8858;-87
2021/06/27 14:40:11;;;;;;;;;10.00;8.40;;;;;;;;4965079;28;8869;-87
2021/06/27 14:42:39;;;;;;;;;10.40;10.40;;;;;;;;4962819;28;8896;-87
2021/06/27 14:45:07;;;;;;;;;9.40;9.40;;;;;;;;4964515;28;8889;-86
2021/06/27 14:47:36;;;;;;;;;10.40;9.40;;;;;;;;4965077;28;8994;-86
2021/06/27 14:50:05;;;;;;;;;8.60;8.60;;;;;;;;4966295;28;9011;-82